Time;durP1;ratioP1;P1;durP2;ratioP2;P2;SDS_P1;SDS_P2;PMS_P1;PMS_P2;Temp;Humidity;BMP_temperature;BMP_pressure;BME280_temperature;BME280_humidity;BME280_pressure;Samples;Min_cycle;Max_cycle;Signal;HPM_P1;HPM_P2
2023/11/03 00:00:58;;;;;;;8.80;1.57;;;10.70;57.20;;;;;;5032015;28;20456;-73
2023/11/03 00:03:26;;;;;;;5.37;1.37;;;10.70;54.90;;;;;;5031566;28;20514;-72
2023/11/03 00:05:53;;;;;;;6.77;1.70;;;10.70;55.40;;;;;;5031669;28;20992;-72
2023/11/03 00:08:20;;;;;;;10.50;1.93;;;10.60;56.70;;;;;;5032471;28;20456;-73
2023/11/03 00:10:47;;;;;;;7.83;2.23;;;10.60;58.80;;;;;;5032248;28;20960;-72
2023/11/03 00:13:15;;;;;;;5.70;1.93;;;10.60;62.00;;;;;;5032230;28;20450;-72
2023/11/03 00:15:41;;;;;;;6.23;1.53;;;10.50;61.10;;;;;;5032144;28;20461;-72
2023/11/03 00:18:09;;;;;;;4.70;1.20;;;10.50;61.20;;;;;;5032426;28;20456;-71
2023/11/03 00:20:37;;;;;;;6.40;1.53;;;10.50;61.40;;;;;;5032182;28;20547;-72
2023/11/03 00:23:04;;;;;;;5.67;1.53;;;10.40;61.30;;;;;;5032257;28;20454;-71
2023/11/03 00:25:31;;;;;;;8.30;2.80;;;10.40;61.30;;;;;;5032519;28;20455;-72
2023/11/03 00:27:58;;;;;;;4.07;1.67;;;10.40;61.30;;;;;;5031992;28;20544;-72
2023/11/03 00:30:25;;;;;;;4.53;1.30;;;10.40;61.30;;;;;;5032283;28;20817;-72
2023/11/03 00:32:51;;;;;;;6.60;1.43;;;10.40;61.30;;;;;;5032250;28;20454;-72
2023/11/03 00:35:18;;;;;;;9.13;1.40;;;10.40;61.30;;;;;;5032235;28;20456;-71
2023/11/03 00:37:47;;;;;;;6.87;1.67;;;10.40;61.30;;;;;;5031804;28;20454;-73
2023/11/03 00:40:14;;;;;;;5.63;1.43;;;10.40;61.20;;;;;;5032047;28;20831;-72
2023/11/03 00:42:42;;;;;;;12.70;1.70;;;10.40;61.30;;;;;;5031851;28;20494;-72
2023/11/03 00:45:10;;;;;;;7.83;1.60;;;10.30;61.20;;;;;;5031836;28;20513;-72
2023/11/03 00:47:37;;;;;;;7.97;1.60;;;10.30;61.20;;;;;;5031689;28;20476;-72
2023/11/03 00:50:06;;;;;;;5.40;1.30;;;10.20;61.10;;;;;;5032214;28;20799;-72
2023/11/03 00:52:33;;;;;;;7.60;1.33;;;10.20;61.20;;;;;;5031973;28;20501;-72
2023/11/03 00:55:01;;;;;;;10.43;2.93;;;10.30;61.20;;;;;;5031832;28;20557;-71
2023/11/03 00:57:28;;;;;;;9.33;1.70;;;10.20;61.20;;;;;;5031579;28;20446;-72
2023/11/03 00:59:56;;;;;;;8.23;1.60;;;10.20;61.10;;;;;;5031811;28;20460;-72
2023/11/03 01:02:22;;;;;;;6.27;1.40;;;10.20;61.20;;;;;;5032122;28;20445;-72
2023/11/03 01:04:49;;;;;;;8.87;2.00;;;10.10;61.10;;;;;;5031610;28;20945;-72
2023/11/03 01:07:16;;;;;;;6.03;1.67;;;10.10;61.00;;;;;;5031557;28;21086;-72
2023/11/03 01:09:43;;;;;;;6.83;1.90;;;10.10;61.00;;;;;;5031756;28;20454;-72
2023/11/03 01:12:11;;;;;;;8.13;2.53;;;10.10;61.00;;;;;;5031548;28;20458;-72
2023/11/03 01:14:38;;;;;;;7.50;1.70;;;10.10;61.00;;;;;;5031787;28;20454;-71
2023/11/03 01:17:05;;;;;;;6.30;1.67;;;10.10;61.00;;;;;;5034941;28;20515;-72
2023/11/03 01:19:33;;;;;;;5.53;1.23;;;10.10;61.10;;;;;;5035247;28;20498;-72
2023/11/03 01:22:00;;;;;;;6.83;1.57;;;10.10;61.10;;;;;;5035099;28;20487;-72
2023/11/03 01:24:27;;;;;;;6.00;1.87;;;10.10;61.10;;;;;;5035318;28;20456;-72
2023/11/03 01:26:54;;;;;;;5.63;1.50;;;10.10;61.00;;;;;;5035219;28;20475;-72
2023/11/03 01:29:22;;;;;;;4.47;1.20;;;10.10;61.00;;;;;;5035293;28;20471;-72
2023/11/03 01:31:49;;;;;;;5.20;2.13;;;10.10;61.00;;;;;;5035093;28;20454;-72
2023/11/03 01:34:15;;;;;;;6.23;2.30;;;10.20;61.20;;;;;;5034870;28;20463;-72
2023/11/03 01:36:43;;;;;;;9.13;2.03;;;10.20;61.20;;;;;;5034838;28;20948;-72
2023/11/03 01:39:10;;;;;;;6.93;2.17;;;10.20;61.10;;;;;;5034798;28;20452;-73
2023/11/03 01:41:37;;;;;;;6.63;3.23;;;10.20;61.10;;;;;;5034872;28;20462;-72
2023/11/03 01:44:06;;;;;;;6.67;1.53;;;10.20;61.10;;;;;;5034831;28;20931;-72
2023/11/03 01:46:36;;;;;;;4.77;1.53;;;10.20;61.20;;;;;;5034712;28;21008;-72
2023/11/03 01:49:05;;;;;;;4.80;1.70;;;10.20;61.20;;;;;;5034649;28;20537;-72
2023/11/03 01:51:32;;;;;;;8.13;1.50;;;10.20;61.10;;;;;;5034667;28;20452;-72
2023/11/03 01:53:59;;;;;;;8.40;2.80;;;10.20;61.20;;;;;;5034532;28;20462;-73
2023/11/03 01:56:27;;;;;;;6.37;2.10;;;10.10;61.00;;;;;;5034510;28;20455;-72
2023/11/03 01:58:54;;;;;;;11.70;1.93;;;10.10;61.10;;;;;;5034469;28;20463;-72
2023/11/03 02:01:21;;;;;;;9.10;2.10;;;10.10;61.00;;;;;;5034400;28;20473;-72
2023/11/03 02:03:50;;;;;;;7.60;2.10;;;10.10;61.80;;;;;;5034758;28;20457;-72
2023/11/03 02:06:16;;;;;;;5.43;1.50;;;10.10;61.10;;;;;;5034214;28;20847;-72
2023/11/03 02:08:43;;;;;;;4.80;1.40;;;10.10;61.10;;;;;;5034380;28;20459;-72
2023/11/03 02:11:10;;;;;;;4.70;1.70;;;10.10;61.90;;;;;;5034689;28;20459;-74
2023/11/03 02:13:37;;;;;;;6.10;1.67;;;10.00;61.00;;;;;;5034205;28;20448;-72
2023/11/03 02:16:05;;;;;;;6.77;1.50;;;10.10;61.10;;;;;;5034258;28;20868;-71
2023/11/03 02:18:32;;;;;;;5.40;1.40;;;10.10;61.10;;;;;;5034089;28;20455;-73
2023/11/03 02:21:00;;;;;;;5.10;1.13;;;10.10;61.10;;;;;;5034006;28;20458;-72
2023/11/03 02:23:28;;;;;;;6.90;1.50;;;10.10;61.10;;;;;;5034153;28;20455;-73
2023/11/03 02:25:55;;;;;;;6.53;1.30;;;10.10;61.10;;;;;;5034244;28;20454;-72
2023/11/03 02:28:21;;;;;;;6.93;1.60;;;10.10;61.10;;;;;;5033096;28;20617;-72
2023/11/03 02:30:48;;;;;;;6.33;1.50;;;10.00;61.00;;;;;;5033960;28;20452;-72
2023/11/03 02:33:15;;;;;;;8.03;1.67;;;9.90;61.90;;;;;;5033690;28;20458;-72
2023/11/03 02:35:42;;;;;;;13.53;1.53;;;9.90;61.90;;;;;;5033790;28;20962;-72
2023/11/03 02:38:09;;;;;;;7.17;1.90;;;9.80;61.80;;;;;;5033786;28;20447;-72
2023/11/03 02:40:38;;;;;;;4.97;1.63;;;9.80;61.80;;;;;;5033859;28;20456;-72
2023/11/03 02:43:05;;;;;;;5.00;1.33;;;9.70;61.80;;;;;;5033725;28;20461;-73
2023/11/03 02:45:31;;;;;;;6.77;1.40;;;9.70;61.70;;;;;;5033790;28;20833;-73
2023/11/03 02:47:58;;;;;;;5.73;1.50;;;9.70;61.70;;;;;;5033300;28;20484;-72
2023/11/03 02:50:25;;;;;;;5.40;1.47;;;9.70;62.20;;;;;;5033762;28;20455;-71
2023/11/03 02:52:52;;;;;;;6.93;2.20;;;9.70;64.90;;;;;;5033431;28;20486;-71
2023/11/03 02:55:19;;;;;;;10.03;1.97;;;9.70;65.80;;;;;;5033622;28;20452;-72
2023/11/03 02:57:47;;;;;;;7.77;1.53;;;9.70;66.60;;;;;;5033517;28;20812;-71
2023/11/03 03:00:16;;;;;;;4.90;1.57;;;9.70;65.80;;;;;;5033213;28;20970;-72
2023/11/03 03:02:43;;;;;;;5.20;1.50;;;9.80;61.80;;;;;;5033379;28;20517;-72
2023/11/03 03:05:10;;;;;;;5.80;1.67;;;9.80;61.80;;;;;;5033501;28;20450;-72
2023/11/03 03:07:38;;;;;;;6.00;1.90;;;9.80;61.80;;;;;;5033295;28;20554;-72
2023/11/03 03:10:06;;;;;;;6.60;2.30;;;9.80;61.80;;;;;;5033278;28;20463;-72
2023/11/03 03:12:33;;;;;;;6.43;1.90;;;9.80;61.80;;;;;;5033094;28;20932;-72
2023/11/03 03:15:03;;;;;;;8.70;1.63;;;9.80;61.80;;;;;;5033410;28;20451;-71
2023/11/03 03:17:30;;;;;;;9.87;1.80;;;9.70;63.80;;;;;;5032958;28;20455;-72
2023/11/03 03:19:57;;;;;;;8.23;1.50;;;9.70;63.70;;;;;;5033048;28;20458;-71
2023/11/03 03:22:24;;;;;;;6.47;2.73;;;9.70;65.80;;;;;;5033111;28;20463;-72
2023/11/03 03:24:51;;;;;;;5.90;1.33;;;9.70;63.10;;;;;;5033001;28;20456;-72
2023/11/03 03:27:17;;;;;;;5.20;1.73;;;9.70;62.70;;;;;;5032598;28;20997;-72
2023/11/03 03:29:44;;;;;;;7.67;1.50;;;9.70;61.70;;;;;;5032785;28;20935;-71
2023/11/03 03:32:12;;;;;;;7.00;1.77;;;9.60;65.40;;;;;;5032890;28;20543;-73
2023/11/03 03:34:39;;;;;;;5.40;1.57;;;9.60;64.90;;;;;;5032851;28;20821;-72
2023/11/03 03:37:06;;;;;;;9.20;1.70;;;9.60;65.10;;;;;;5032756;28;20440;-72
2023/11/03 03:39:33;;;;;;;9.87;2.40;;;9.70;63.50;;;;;;5032611;28;20614;-72
2023/11/03 03:42:00;;;;;;;6.67;2.30;;;9.70;61.80;;;;;;5032500;28;20514;-72
2023/11/03 03:44:26;;;;;;;5.43;2.20;;;9.70;64.90;;;;;;5032783;28;20818;-72
2023/11/03 03:46:53;;;;;;;7.17;1.73;;;9.70;65.60;;;;;;5032469;28;20567;-72
2023/11/03 03:49:21;;;;;;;9.37;2.43;;;9.70;67.20;;;;;;5032521;28;20454;-72
2023/11/03 03:51:49;;;;;;;6.80;1.80;;;9.70;66.60;;;;;;5032566;28;20450;-72
2023/11/03 03:54:15;;;;;;;4.33;1.60;;;9.60;68.70;;;;;;5032330;28;20465;-72
2023/11/03 03:56:42;;;;;;;6.80;1.67;;;9.50;67.90;;;;;;5032211;28;20459;-72
2023/11/03 03:59:09;;;;;;;5.50;2.23;;;9.50;67.90;;;;;;5032238;28;20522;-72
2023/11/03 04:01:36;;;;;;;8.43;1.60;;;9.50;67.50;;;;;;5032554;28;20454;-72
2023/11/03 04:04:03;;;;;;;9.63;1.73;;;9.40;69.40;;;;;;5032339;28;20457;-72
2023/11/03 04:06:31;;;;;;;5.77;1.50;;;9.50;67.50;;;;;;5032320;28;20893;-73
2023/11/03 04:08:58;;;;;;;8.33;3.30;;;9.50;67.20;;;;;;5032111;28;21021;-72
2023/11/03 04:11:24;;;;;;;8.27;2.17;;;9.50;67.60;;;;;;5032241;28;20521;-72
2023/11/03 04:13:51;;;;;;;10.63;3.13;;;9.50;67.90;;;;;;5032374;28;20451;-72
2023/11/03 04:16:18;;;;;;;7.40;1.90;;;9.50;66.70;;;;;;5032450;28;20835;-72
2023/11/03 04:18:46;;;;;;;8.67;2.80;;;9.50;67.50;;;;;;5032217;28;20447;-72
2023/11/03 04:21:12;;;;;;;8.60;2.00;;;9.40;69.30;;;;;;5032201;28;20457;-72
2023/11/03 04:23:40;;;;;;;10.93;2.40;;;9.40;69.50;;;;;;5031961;28;20457;-72
2023/11/03 04:26:07;;;;;;;7.97;2.30;;;9.40;69.50;;;;;;5032103;28;20449;-72
2023/11/03 04:28:35;;;;;;;7.97;1.97;;;9.30;69.40;;;;;;5032224;28;20481;-72
2023/11/03 04:31:02;;;;;;;8.30;2.23;;;9.40;69.50;;;;;;5032169;28;20455;-72
2023/11/03 04:33:29;;;;;;;6.67;2.20;;;9.40;69.50;;;;;;5031964;28;20459;-72
2023/11/03 04:35:55;;;;;;;12.33;3.67;;;9.30;69.40;;;;;;5032095;28;20812;-72
2023/11/03 04:38:22;;;;;;;16.27;2.23;;;9.30;69.40;;;;;;5031709;28;20445;-72
2023/11/03 04:40:50;;;;;;;10.43;2.10;;;9.30;69.50;;;;;;5032013;28;20447;-72
2023/11/03 04:43:17;;;;;;;11.50;3.50;;;9.20;69.70;;;;;;5032073;28;20449;-72
2023/11/03 04:45:44;;;;;;;9.13;2.07;;;9.20;69.40;;;;;;5031889;28;20451;-72
2023/11/03 04:48:11;;;;;;;10.13;2.10;;;9.20;70.60;;;;;;5031592;28;20477;-72
2023/11/03 04:50:38;;;;;;;10.73;2.20;;;9.20;71.00;;;;;;5033497;28;20462;-72
2023/11/03 04:53:05;;;;;;;9.97;2.17;;;9.20;71.00;;;;;;5035750;28;20479;-72
2023/11/03 04:55:32;;;;;;;12.80;2.83;;;9.30;69.50;;;;;;5035973;28;20445;-72
2023/11/03 04:58:01;;;;;;;5.70;2.57;;;9.30;69.50;;;;;;5035679;28;20455;-73
2023/11/03 05:00:27;;;;;;;12.70;2.97;;;9.20;70.80;;;;;;5035504;28;20458;-72
2023/11/03 05:02:55;;;;;;;11.60;3.23;;;9.20;70.50;;;;;;5035592;28;20459;-72
2023/11/03 05:05:22;;;;;;;18.67;4.03;;;9.20;73.10;;;;;;5035379;28;21048;-72
2023/11/03 05:07:49;;;;;;;10.37;2.60;;;9.10;74.00;;;;;;5035319;28;20988;-72
2023/11/03 05:10:15;;;;;;;13.30;3.33;;;9.10;76.80;;;;;;5035471;28;20743;-72
2023/11/03 05:12:42;;;;;;;10.60;1.90;;;9.00;74.50;;;;;;5035138;28;20546;-72
2023/11/03 05:15:11;;;;;;;7.63;2.67;;;9.00;73.70;;;;;;5035411;28;20458;-74
2023/11/03 05:17:39;;;;;;;9.30;3.30;;;9.10;73.20;;;;;;5035194;28;20453;-73
2023/11/03 05:20:09;;;;;;;12.60;3.00;;;9.10;72.50;;;;;;5035186;28;20514;-73
2023/11/03 05:22:36;;;;;;;15.13;3.33;;;9.10;72.70;;;;;;5035455;28;20452;-73
2023/11/03 05:25:04;;;;;;;11.27;2.60;;;9.10;73.00;;;;;;5035267;28;20455;-73
2023/11/03 05:27:31;;;;;;;15.70;2.80;;;9.10;75.30;;;;;;5034943;28;21033;-73
2023/11/03 05:29:58;;;;;;;10.33;2.20;;;9.10;76.70;;;;;;5034837;28;20542;-72
2023/11/03 05:32:26;;;;;;;13.07;2.60;;;9.10;76.00;;;;;;5034299;28;20465;-72
2023/11/03 05:34:53;;;;;;;8.83;2.60;;;9.10;74.80;;;;;;5034917;28;20461;-73
2023/11/03 05:37:20;;;;;;;10.80;2.87;;;9.10;75.40;;;;;;5026621;28;20456;-73
2023/11/03 05:39:47;;;;;;;10.20;2.60;;;9.10;76.40;;;;;;5034998;28;20446;-73
2023/11/03 05:42:13;;;;;;;8.00;1.90;;;9.10;75.50;;;;;;5034663;28;20455;-72
2023/11/03 05:44:40;;;;;;;8.17;2.77;;;9.10;76.50;;;;;;5034652;28;20456;-72
2023/11/03 05:47:07;;;;;;;6.87;2.10;;;9.10;77.00;;;;;;5033705;28;20455;-72
2023/11/03 05:49:35;;;;;;;11.53;2.33;;;9.10;76.80;;;;;;5034938;28;20476;-72
2023/11/03 05:52:02;;;;;;;12.10;3.43;;;9.10;77.10;;;;;;5034012;28;20465;-72
2023/11/03 05:54:29;;;;;;;11.23;2.37;;;9.00;77.00;;;;;;5034359;28;20465;-72
2023/11/03 05:56:56;;;;;;;14.17;2.80;;;9.00;77.00;;;;;;5034320;28;20461;-72
2023/11/03 05:59:23;;;;;;;11.47;2.40;;;9.00;77.00;;;;;;5033894;28;20457;-72
2023/11/03 06:01:51;;;;;;;7.80;2.70;;;8.90;76.90;;;;;;5033537;28;20457;-72
2023/11/03 06:04:18;;;;;;;9.53;2.10;;;8.90;77.00;;;;;;5034298;28;20452;-72
2023/11/03 06:06:48;;;;;;;10.30;2.33;;;8.90;76.90;;;;;;5034481;28;20457;-72
2023/11/03 06:09:15;;;;;;;14.73;3.10;;;8.90;77.00;;;;;;5034352;28;20830;-72
2023/11/03 06:11:42;;;;;;;9.27;2.47;;;8.90;76.90;;;;;;5034300;28;20933;-72
2023/11/03 06:14:09;;;;;;;14.00;2.57;;;8.90;76.90;;;;;;5033996;28;20456;-72
2023/11/03 06:16:36;;;;;;;8.33;2.30;;;8.90;77.00;;;;;;5034139;28;20545;-72
2023/11/03 06:19:03;;;;;;;9.97;3.17;;;8.90;77.00;;;;;;5034192;28;20547;-73
2023/11/03 06:21:30;;;;;;;9.97;2.43;;;8.90;77.00;;;;;;5034227;28;20456;-72
2023/11/03 06:23:58;;;;;;;5.70;1.80;;;8.90;76.90;;;;;;5034101;28;20461;-72
2023/11/03 06:26:26;;;;;;;10.23;2.63;;;8.80;76.90;;;;;;5034473;28;20460;-72
2023/11/03 06:28:56;;;;;;;12.70;2.50;;;8.80;76.90;;;;;;5033634;28;20484;-72
2023/11/03 06:31:23;;;;;;;10.47;2.43;;;8.80;76.90;;;;;;5033879;28;20475;-72
2023/11/03 06:33:50;;;;;;;8.57;2.30;;;8.80;76.90;;;;;;5033942;28;20452;-72
2023/11/03 06:36:17;;;;;;;11.60;2.50;;;8.70;76.80;;;;;;5033810;28;20454;-72
2023/11/03 06:38:44;;;;;;;11.93;2.70;;;8.70;76.80;;;;;;5033737;28;20890;-72
2023/11/03 06:41:12;;;;;;;12.60;2.87;;;8.80;76.90;;;;;;5033479;28;20452;-72
2023/11/03 06:43:41;;;;;;;12.07;2.50;;;8.80;76.90;;;;;;5033756;28;20819;-72
2023/11/03 06:46:09;;;;;;;14.40;2.50;;;8.80;76.90;;;;;;5033285;28;20488;-72
2023/11/03 06:48:36;;;;;;;11.60;3.07;;;8.90;78.10;;;;;;5033377;28;20479;-72
2023/11/03 06:51:09;;;;;;;10.07;2.77;;;8.90;79.20;;;;;;5033651;28;20455;-72
2023/11/03 06:53:35;;;;;;;10.47;2.60;;;8.90;79.20;;;;;;5033262;28;20453;-72
2023/11/03 06:56:03;;;;;;;6.27;2.60;;;8.90;77.20;;;;;;5033411;28;20817;-72
2023/11/03 06:58:32;;;;;;;5.93;2.23;;;9.00;78.40;;;;;;5033247;28;20445;-72
2023/11/03 07:01:00;;;;;;;9.33;2.43;;;9.00;77.10;;;;;;5033359;28;20496;-72
2023/11/03 07:03:27;;;;;;;13.73;3.07;;;9.00;77.10;;;;;;5033347;28;20456;-72
2023/11/03 07:05:54;;;;;;;10.10;2.43;;;9.00;77.10;;;;;;5033398;28;20802;-72
2023/11/03 07:08:21;;;;;;;9.33;3.67;;;9.00;77.90;;;;;;5032923;28;20482;-72
2023/11/03 07:10:47;;;;;;;8.80;2.33;;;9.00;77.90;;;;;;5033469;28;20452;-72
2023/11/03 07:13:14;;;;;;;13.77;3.13;;;9.00;77.20;;;;;;5032882;28;20464;-72
2023/11/03 07:15:43;;;;;;;15.03;2.27;;;9.00;77.30;;;;;;5033297;28;20460;-72
2023/11/03 07:18:11;;;;;;;9.43;2.70;;;9.00;78.30;;;;;;5032925;28;20824;-72
2023/11/03 07:20:38;;;;;;;6.63;2.17;;;9.10;77.20;;;;;;5032981;28;20453;-72
2023/11/03 07:23:07;;;;;;;14.50;2.90;;;9.10;77.20;;;;;;5032890;28;20460;-72
2023/11/03 07:25:33;;;;;;;15.80;2.80;;;9.20;77.30;;;;;;5033129;28;20449;-72
2023/11/03 07:28:00;;;;;;;6.97;2.17;;;9.20;77.30;;;;;;5032750;28;20833;-72
2023/11/03 07:30:28;;;;;;;7.63;2.20;;;9.20;77.20;;;;;;5033049;28;20490;-72
2023/11/03 07:32:57;;;;;;;8.33;2.40;;;9.30;77.40;;;;;;5022886;28;20894;-72
2023/11/03 07:35:24;;;;;;;9.80;2.50;;;9.30;77.30;;;;;;5012527;28;20454;-72
2023/11/03 07:37:50;;;;;;;8.43;3.20;;;9.30;77.30;;;;;;5012431;28;20490;-72
2023/11/03 07:40:18;;;;;;;7.63;2.63;;;9.40;77.40;;;;;;5012648;28;20457;-72
2023/11/03 07:42:45;;;;;;;8.13;2.53;;;9.40;77.40;;;;;;5012506;28;20459;-72
2023/11/03 07:45:13;;;;;;;8.60;2.33;;;9.50;77.50;;;;;;5012647;28;20453;-72
2023/11/03 07:47:41;;;;;;;9.07;2.40;;;9.50;77.50;;;;;;5012353;28;20451;-72
2023/11/03 07:50:10;;;;;;;9.60;2.20;;;9.50;77.50;;;;;;5012244;28;20539;-72
2023/11/03 07:52:37;;;;;;;10.70;1.93;;;9.50;77.50;;;;;;5012608;28;20455;-72
2023/11/03 07:55:05;;;;;;;9.23;2.20;;;9.60;77.50;;;;;;5012201;28;20496;-72
2023/11/03 07:57:32;;;;;;;7.50;2.20;;;9.60;77.60;;;;;;5012359;28;20460;-72
2023/11/03 08:00:09;;;;;;;9.87;2.07;;;9.60;77.50;;;;;;5012309;28;20458;-72
2023/11/03 08:02:37;;;;;;;14.53;2.33;;;9.60;77.60;;;;;;5012201;28;20813;-72
2023/11/03 08:05:04;;;;;;;12.43;2.20;;;9.60;77.50;;;;;;5012333;28;20510;-72
2023/11/03 08:07:32;;;;;;;9.07;2.03;;;9.60;77.50;;;;;;5012190;28;21016;-72
2023/11/03 08:09:59;;;;;;;6.83;1.80;;;9.60;77.50;;;;;;5012142;28;20510;-72
2023/11/03 08:12:26;;;;;;;7.10;2.20;;;9.60;77.60;;;;;;5011935;28;20455;-72
2023/11/03 08:14:55;;;;;;;8.63;2.20;;;9.60;77.50;;;;;;5011402;28;20471;-73
2023/11/03 08:17:23;;;;;;;6.70;2.13;;;9.60;77.50;;;;;;5011651;28;20450;-72
2023/11/03 08:19:50;;;;;;;6.87;2.27;;;9.60;77.60;;;;;;5011938;28;20943;-72
2023/11/03 08:22:17;;;;;;;8.00;1.70;;;9.70;77.60;;;;;;5011899;28;20451;-72
2023/11/03 08:24:45;;;;;;;17.63;2.73;;;9.80;77.70;;;;;;5012069;28;20964;-72
2023/11/03 08:27:14;;;;;;;7.90;2.40;;;9.90;75.90;;;;;;5016138;28;20453;-72
2023/11/03 08:29:40;;;;;;;13.50;1.93;;;10.00;76.80;;;;;;5016379;28;20543;-72
2023/11/03 08:32:10;;;;;;;11.65;2.20;;;10.10;73.00;;;;;;5016045;28;20874;-72
2023/11/03 08:34:37;;;;;;;13.00;3.58;;;10.30;72.10;;;;;;5015243;28;20451;-72
2023/11/03 08:37:04;;;;;;;8.25;2.50;;;10.40;72.40;;;;;;5015177;28;20537;-71
2023/11/03 08:39:31;;;;;;;7.77;2.30;;;10.60;73.50;;;;;;5016259;28;20228;-71
2023/11/03 08:42:01;;;;;;;8.80;1.90;;;10.70;71.60;;;;;;5015189;28;20492;-71
2023/11/03 08:44:28;;;;;;;8.90;2.20;;;10.80;69.80;;;;;;5016336;28;20456;-71
2023/11/03 08:46:55;;;;;;;9.27;2.90;;;11.00;70.00;;;;;;5016178;28;20475;-71
2023/11/03 08:49:23;;;;;;;7.70;2.57;;;11.10;70.20;;;;;;5015912;28;20489;-71
2023/11/03 08:51:51;;;;;;;14.53;2.10;;;11.20;69.20;;;;;;5016184;28;20459;-71
2023/11/03 08:54:18;;;;;;;7.70;2.37;;;11.30;65.60;;;;;;5016387;28;20450;-71
2023/11/03 08:56:45;;;;;;;12.03;2.30;;;11.40;62.80;;;;;;5015801;28;20536;-71
2023/11/03 08:59:14;;;;;;;16.40;2.50;;;11.50;62.30;;;;;;5015934;28;20446;-71
2023/11/03 09:01:43;;;;;;;12.07;2.37;;;11.70;62.50;;;;;;5015889;28;20454;-72
2023/11/03 09:04:11;;;;;;;11.10;2.90;;;11.80;62.60;;;;;;5015700;28;20955;-72
2023/11/03 09:06:38;;;;;;;6.90;2.07;;;11.70;62.50;;;;;;5015662;28;20510;-72
2023/11/03 09:09:06;;;;;;;11.43;2.80;;;11.60;62.40;;;;;;5015455;28;20477;-72
2023/11/03 09:11:33;;;;;;;10.00;2.70;;;11.50;62.30;;;;;;5015937;28;20449;-71
2023/11/03 09:14:06;;;;;;;10.40;2.47;;;11.40;62.30;;;;;;5015787;28;20563;-71
2023/11/03 09:16:34;;;;;;;9.47;3.03;;;11.40;65.60;;;;;;5015604;28;20448;-71
2023/11/03 09:19:02;;;;;;;7.80;2.43;;;11.40;64.00;;;;;;5015493;28;20449;-71
2023/11/03 09:21:29;;;;;;;10.73;3.10;;;11.50;64.80;;;;;;5015398;28;20450;-72
2023/11/03 09:23:56;;;;;;;9.03;2.20;;;11.50;62.40;;;;;;5015276;28;20519;-72
2023/11/03 09:26:23;;;;;;;7.30;1.77;;;11.50;62.40;;;;;;5015510;28;20453;-71
2023/11/03 09:28:50;;;;;;;13.53;3.23;;;11.60;63.30;;;;;;5015312;28;20478;-71
2023/11/03 09:31:17;;;;;;;10.77;2.00;;;11.70;62.60;;;;;;5015456;28;20453;-71
2023/11/03 09:33:47;;;;;;;10.83;2.10;;;11.80;62.70;;;;;;5015605;28;20550;-71
2023/11/03 09:36:14;;;;;;;11.20;2.60;;;12.00;62.80;;;;;;5014748;28;20455;-72
2023/11/03 09:38:42;;;;;;;13.33;2.80;;;11.90;62.70;;;;;;5015336;28;20549;-72
2023/11/03 09:41:10;;;;;;;11.33;2.27;;;11.90;62.70;;;;;;5015311;28;20450;-72
2023/11/03 09:43:37;;;;;;;11.23;1.90;;;11.90;62.70;;;;;;5015139;28;20460;-72
2023/11/03 09:46:04;;;;;;;11.40;3.00;;;11.90;62.70;;;;;;5014648;28;20448;-71
2023/11/03 09:48:33;;;;;;;12.40;2.80;;;11.90;62.70;;;;;;5015019;28;20512;-72
2023/11/03 09:51:02;;;;;;;11.80;2.37;;;11.90;62.70;;;;;;5015173;28;20450;-72
2023/11/03 09:53:32;;;;;;;13.50;2.97;;;12.10;62.90;;;;;;5014944;28;20456;-72
2023/11/03 09:56:02;;;;;;;9.77;1.80;;;12.30;63.00;;;;;;5014915;28;20555;-72
2023/11/03 09:58:30;;;;;;;13.23;2.87;;;12.40;58.30;;;;;;5014575;28;20948;-71
2023/11/03 10:00:57;;;;;;;10.30;2.73;;;12.40;58.70;;;;;;5014691;28;20523;-71
2023/11/03 10:03:24;;;;;;;12.43;2.50;;;12.40;57.90;;;;;;5014804;28;20453;-71
2023/11/03 10:05:51;;;;;;;10.63;2.50;;;12.60;63.10;;;;;;5014162;28;20458;-71
2023/11/03 10:08:20;;;;;;;10.23;2.27;;;12.80;59.60;;;;;;5015792;28;20256;-71
2023/11/03 10:10:47;;;;;;;12.80;3.47;;;13.00;55.30;;;;;;5015212;28;20512;-72
2023/11/03 10:13:15;;;;;;;11.87;3.23;;;13.50;55.60;;;;;;5014814;28;20467;-72
2023/11/03 10:15:44;;;;;;;19.40;3.20;;;13.90;48.60;;;;;;5015137;28;20802;-72
2023/11/03 10:18:11;;;;;;;6.17;1.70;;;14.00;47.60;;;;;;5015416;28;20504;-71
2023/11/03 10:20:39;;;;;;;12.40;3.03;;;14.50;48.10;;;;;;5015156;28;20460;-72
2023/11/03 10:23:06;;;;;;;9.23;3.40;;;15.00;48.50;;;;;;5014770;28;20454;-72
2023/11/03 10:25:35;;;;;;;13.35;2.72;;;15.70;40.60;;;;;;5012874;28;20451;-73
2023/11/03 10:28:04;;;;;;;8.93;2.17;;;16.40;41.00;;;;;;5014958;28;20557;-72
2023/11/03 10:30:31;;;;;;;7.00;1.83;;;16.40;32.00;;;;;;5022701;28;20476;-72
2023/11/03 10:32:58;;;;;;;13.40;2.67;;;15.90;31.80;;;;;;5034193;28;20448;-73
2023/11/03 10:35:25;;;;;;;9.97;2.50;;;15.60;38.50;;;;;;5034059;28;20455;-73
2023/11/03 10:37:53;;;;;;;16.60;3.40;;;15.20;35.30;;;;;;5034144;28;20872;-72
2023/11/03 10:40:20;;;;;;;9.00;2.10;;;14.80;39.50;;;;;;5034560;28;20471;-73
2023/11/03 10:42:50;;;;;;;9.13;2.77;;;14.60;39.30;;;;;;5033900;28;20449;-72
2023/11/03 10:45:20;;;;;;;11.50;2.90;;;14.30;39.00;;;;;;5033697;28;21030;-72
2023/11/03 10:48:01;;;;;;;11.10;2.50;;;14.20;43.20;;;;;;5033393;28;20448;-72
2023/11/03 10:50:34;;;;;;;9.30;1.77;;;14.20;47.80;;;;;;5034485;28;20468;-72
2023/11/03 10:53:10;;;;;;;12.03;2.70;;;14.10;47.60;;;;;;5033710;28;20830;-72
2023/11/03 10:55:40;;;;;;;9.10;2.30;;;14.20;45.80;;;;;;5033548;28;20962;-72
2023/11/03 10:58:09;;;;;;;11.10;2.33;;;14.60;42.60;;;;;;5034301;28;20452;-72
2023/11/03 11:00:42;;;;;;;12.63;2.83;;;14.60;39.30;;;;;;5033971;28;20511;-72
2023/11/03 11:03:17;;;;;;;9.53;2.97;;;14.60;39.30;;;;;;5033121;28;20456;-73
2023/11/03 11:05:51;;;;;;;9.90;2.97;;;14.60;40.30;;;;;;5033502;28;20462;-72
2023/11/03 11:08:19;;;;;;;10.57;2.43;;;14.40;39.20;;;;;;5033898;28;20444;-72
2023/11/03 11:10:47;;;;;;;11.00;3.13;;;14.10;47.60;;;;;;5033788;28;20482;-72
2023/11/03 11:13:18;;;;;;;8.63;3.07;;;13.90;47.50;;;;;;5033123;28;20534;-72
2023/11/03 11:16:03;;;;;;;10.27;2.70;;;13.50;47.10;;;;;;5033594;28;20539;-72
2023/11/03 11:18:33;;;;;;;12.73;2.90;;;13.40;47.10;;;;;;5034092;28;20431;-72
2023/11/03 11:21:05;;;;;;;11.30;2.67;;;13.10;46.80;;;;;;5033444;28;20444;-72
2023/11/03 11:23:38;;;;;;;12.73;2.60;;;12.90;46.60;;;;;;5032985;28;20451;-73
2023/11/03 11:26:13;;;;;;;14.20;2.97;;;12.80;46.50;;;;;;5032455;28;20543;-74
2023/11/03 11:28:43;;;;;;;12.67;2.43;;;12.70;50.80;;;;;;5032692;28;20491;-74
2023/11/03 11:31:46;;;;;;;10.00;2.77;;;12.70;47.90;;;;;;5032724;28;20480;-74
2023/11/03 11:34:19;;;;;;;14.43;2.57;;;12.80;47.90;;;;;;5032390;28;20800;-74
2023/11/03 11:36:47;;;;;;;10.57;2.60;;;13.10;47.00;;;;;;5032482;28;20463;-73
2023/11/03 11:39:17;;;;;;;15.05;3.38;;;13.50;47.10;;;;;;5032638;28;20507;-74
2023/11/03 11:41:51;;;;;;;13.93;3.57;;;14.00;46.30;;;;;;5032611;28;20288;-74
2023/11/03 11:44:19;;;;;;;14.87;2.77;;;14.50;40.20;;;;;;5033000;28;20451;-74
2023/11/03 11:46:52;;;;;;;10.23;2.00;;;14.70;39.40;;;;;;5032681;28;21040;-74
2023/11/03 11:49:21;;;;;;;7.97;2.33;;;14.60;39.30;;;;;;5032289;28;20448;-74
2023/11/03 11:51:49;;;;;;;14.67;2.80;;;14.50;39.30;;;;;;5032762;28;20455;-74
2023/11/03 11:54:18;;;;;;;11.83;2.70;;;14.70;44.40;;;;;;5032923;28;20854;-74
2023/11/03 11:56:46;;;;;;;14.20;2.20;;;14.50;39.20;;;;;;5031415;28;20451;-73
2023/11/03 11:59:16;;;;;;;8.77;1.90;;;14.40;39.20;;;;;;5032095;28;20514;-73
2023/11/03 12:01:46;;;;;;;10.33;2.20;;;14.70;39.40;;;;;;5032423;28;20462;-74
2023/11/03 12:04:13;;;;;;;9.67;2.10;;;15.50;39.80;;;;;;5032437;28;20448;-73
2023/11/03 12:06:41;;;;;;;10.10;3.40;;;15.80;35.30;;;;;;5032296;28;20560;-73
2023/11/03 12:09:09;;;;;;;14.03;2.57;;;16.10;31.60;;;;;;5032552;28;20939;-73
2023/11/03 12:11:37;;;;;;;10.83;2.33;;;16.40;31.50;;;;;;5031944;28;20860;-73
2023/11/03 12:14:04;;;;;;;13.47;3.10;;;16.20;31.80;;;;;;5032096;28;20456;-73
2023/11/03 12:16:31;;;;;;;9.27;2.30;;;15.80;31.40;;;;;;5031035;28;20464;-73
2023/11/03 12:18:59;;;;;;;16.17;2.50;;;15.50;31.10;;;;;;5032108;28;20448;-74
2023/11/03 12:21:26;;;;;;;11.13;2.83;;;15.30;30.90;;;;;;5030879;28;20532;-75
2023/11/03 12:23:57;;;;;;;12.93;3.00;;;15.50;31.20;;;;;;5031103;28;20455;-74
2023/11/03 12:26:24;;;;;;;6.07;2.13;;;15.60;31.20;;;;;;5031919;28;20539;-74
2023/11/03 12:28:51;;;;;;;10.47;2.13;;;15.20;30.80;;;;;;5032134;28;20885;-74
2023/11/03 12:31:19;;;;;;;10.30;2.30;;;15.10;30.70;;;;;;5031977;28;21058;-74
2023/11/03 12:33:46;;;;;;;10.50;2.40;;;15.20;30.80;;;;;;5031916;28;20456;-73
2023/11/03 12:36:15;;;;;;;15.60;2.40;;;15.00;30.60;;;;;;5031879;28;20462;-74
2023/11/03 12:38:43;;;;;;;10.53;1.73;;;15.10;31.50;;;;;;5032007;28;20482;-74
2023/11/03 12:41:14;;;;;;;9.00;1.93;;;15.70;31.30;;;;;;5031896;28;20440;-74
2023/11/03 12:43:42;;;;;;;7.77;1.70;;;15.60;31.20;;;;;;5031916;28;20503;-74
2023/11/03 12:46:10;;;;;;;8.70;2.63;;;15.40;31.00;;;;;;5031880;28;20456;-74
2023/11/03 12:48:39;;;;;;;8.53;2.03;;;15.20;30.80;;;;;;5031850;28;20447;-74
2023/11/03 12:51:07;;;;;;;13.83;2.40;;;14.70;30.40;;;;;;5031901;28;20476;-74